createdAt,value
2022-08-21T00:00:44.396Z,18.36
2022-08-21T00:03:12.267Z,18.23
2022-08-21T00:05:43.443Z,18.22
2022-08-21T00:08:10.279Z,18.39
2022-08-21T00:10:37.241Z,18.25
2022-08-21T00:13:07.693Z,18.26
2022-08-21T00:15:36.916Z,18.08
2022-08-21T00:18:05.691Z,18.36
2022-08-21T00:20:34.461Z,18.29
2022-08-21T00:23:01.703Z,18.14
2022-08-21T00:25:28.519Z,18.14
2022-08-21T00:27:56.410Z,18.31
2022-08-21T00:30:26.542Z,18.29
2022-08-21T00:32:54.692Z,18.21
2022-08-21T00:35:28.900Z,18.30
2022-08-21T00:37:55.777Z,18.04
2022-08-21T00:40:32.875Z,18.03
2022-08-21T00:42:59.589Z,17.89
2022-08-21T00:45:26.697Z,17.88
2022-08-21T00:47:53.581Z,17.84
2022-08-21T00:50:21.925Z,17.86
2022-08-21T00:52:51.465Z,17.88
2022-08-21T00:55:20.224Z,18.00
2022-08-21T00:57:52.236Z,17.72
2022-08-21T01:00:23.740Z,17.63
2022-08-21T01:02:50.589Z,17.74
2022-08-21T01:05:17.252Z,17.78
2022-08-21T01:07:44.329Z,17.87
2022-08-21T01:10:20.545Z,17.78
2022-08-21T01:12:53.432Z,17.38
2022-08-21T01:15:20.476Z,17.45
2022-08-21T01:17:48.368Z,17.63
2022-08-21T01:20:14.987Z,17.56
2022-08-21T01:22:41.638Z,17.59
2022-08-21T01:25:09.972Z,17.19
2022-08-21T01:27:37.366Z,17.27
2022-08-21T01:30:12.174Z,17.10
2022-08-21T01:32:38.855Z,17.14
2022-08-21T01:35:07.300Z,17.16
2022-08-21T01:37:34.569Z,17.25
2022-08-21T01:40:01.246Z,17.30
2022-08-21T01:42:27.950Z,17.19
2022-08-21T01:44:56.238Z,17.10
2022-08-21T01:47:23.410Z,17.25
2022-08-21T01:49:50.589Z,17.12
2022-08-21T01:52:17.390Z,17.29
2022-08-21T01:54:44.074Z,17.18
2022-08-21T01:57:11.553Z,17.10
2022-08-21T01:59:38.280Z,17.38
2022-08-21T02:02:05.958Z,17.32
2022-08-21T02:04:33.482Z,17.32
2022-08-21T02:07:01.363Z,17.32
2022-08-21T02:09:28.634Z,17.21
2022-08-21T02:11:56.218Z,17.02
2022-08-21T02:14:28.636Z,16.94
2022-08-21T02:17:09.512Z,17.17
2022-08-21T02:19:39.990Z,17.19
2022-08-21T02:22:11.249Z,17.20
2022-08-21T02:24:54.173Z,17.12
2022-08-21T02:27:26.202Z,17.10
2022-08-21T02:29:55.684Z,17.06
2022-08-21T02:32:22.307Z,17.38
2022-08-21T02:34:48.997Z,17.20
2022-08-21T02:37:15.726Z,17.37
2022-08-21T02:39:42.490Z,17.20
2022-08-21T02:42:09.141Z,17.21
2022-08-21T02:44:35.753Z,17.16
2022-08-21T02:47:02.375Z,16.99
2022-08-21T02:49:29.124Z,17.07
2022-08-21T02:51:55.715Z,16.93
2022-08-21T02:54:22.331Z,17.03
2022-08-21T02:56:49.021Z,17.00
2022-08-21T02:59:15.722Z,17.06
2022-08-21T03:01:42.417Z,17.02
2022-08-21T03:04:09.211Z,16.94
2022-08-21T03:06:35.896Z,16.90
2022-08-21T03:09:03.159Z,16.97
2022-08-21T03:11:29.808Z,16.89
2022-08-21T03:13:56.459Z,16.79
2022-08-21T03:16:23.107Z,17.00
2022-08-21T03:18:49.901Z,17.03
2022-08-21T03:21:16.532Z,17.21
2022-08-21T03:23:43.216Z,17.23
2022-08-21T03:26:10.769Z,17.10
2022-08-21T03:28:37.663Z,16.95
2022-08-21T03:31:04.444Z,17.20
2022-08-21T03:33:31.065Z,17.11
2022-08-21T03:36:05.149Z,17.05
2022-08-21T03:38:34.128Z,16.98
2022-08-21T03:41:01.825Z,17.03
2022-08-21T03:43:31.271Z,17.03
2022-08-21T03:46:01.415Z,17.18
2022-08-21T03:48:28.273Z,16.97
2022-08-21T03:50:54.922Z,16.97
2022-08-21T03:53:22.207Z,17.10
2022-08-21T03:55:50.885Z,17.03
2022-08-21T03:58:20.260Z,16.96
2022-08-21T04:00:50.068Z,16.97
2022-08-21T04:03:17.095Z,16.81
2022-08-21T04:05:44.452Z,16.96
2022-08-21T04:08:11.093Z,16.84
2022-08-21T04:10:39.807Z,16.90
2022-08-21T04:13:07.682Z,17.04
2022-08-21T04:15:34.504Z,17.14
2022-08-21T04:18:01.274Z,17.15
2022-08-21T04:20:28.084Z,17.38
2022-08-21T04:22:55.302Z,17.50
2022-08-21T04:25:23.665Z,17.37
2022-08-21T04:27:50.401Z,17.23
2022-08-21T04:30:17.926Z,17.20
2022-08-21T04:32:47.065Z,17.22
2022-08-21T04:35:18.578Z,17.18
2022-08-21T04:37:45.258Z,17.21
2022-08-21T04:40:14.056Z,17.23
2022-08-21T04:42:49.677Z,17.21
2022-08-21T04:45:38.266Z,17.06
2022-08-21T04:48:12.018Z,17.19
2022-08-21T04:50:45.612Z,17.49
2022-08-21T04:53:39.935Z,17.18
2022-08-21T04:56:13.734Z,17.18
2022-08-21T04:58:40.834Z,17.17
2022-08-21T05:01:12.663Z,17.15
2022-08-21T05:03:40.461Z,17.41
2022-08-21T05:06:11.165Z,17.34
2022-08-21T05:08:38.475Z,17.08
2022-08-21T05:11:05.538Z,17.47
2022-08-21T05:13:32.483Z,17.23
2022-08-21T05:15:59.119Z,17.27
2022-08-21T05:18:25.963Z,17.19
2022-08-21T05:20:52.614Z,17.14
2022-08-21T05:23:19.293Z,17.05
2022-08-21T05:25:46.134Z,17.03
2022-08-21T05:28:13.010Z,17.11
2022-08-21T05:30:40.182Z,17.16
2022-08-21T05:33:08.048Z,17.17
2022-08-21T05:35:34.862Z,17.43
2022-08-21T05:38:01.803Z,17.29
2022-08-21T05:40:28.642Z,17.41
2022-08-21T05:42:56.606Z,17.40
2022-08-21T05:45:42.922Z,17.32
2022-08-21T05:48:19.567Z,17.41
2022-08-21T05:50:47.635Z,17.39
2022-08-21T05:53:15.863Z,17.28
2022-08-21T05:55:46.049Z,17.28
2022-08-21T05:58:15.110Z,17.45
2022-08-21T06:00:41.802Z,17.47
2022-08-21T06:03:13.249Z,17.54
2022-08-21T06:05:39.889Z,17.51
2022-08-21T06:08:06.536Z,17.60
2022-08-21T06:10:33.137Z,17.60
2022-08-21T06:12:59.870Z,17.58
2022-08-21T06:15:26.722Z,17.73
2022-08-21T06:17:55.269Z,17.43
2022-08-21T06:20:22.892Z,17.49
2022-08-21T06:22:49.660Z,17.48
2022-08-21T06:25:16.457Z,17.81
2022-08-21T06:27:43.088Z,17.63
2022-08-21T06:30:10.667Z,17.69
2022-08-21T06:32:37.460Z,17.78
2022-08-21T06:35:06.662Z,17.71
2022-08-21T06:37:33.318Z,17.76
2022-08-21T06:40:00.061Z,17.66
2022-08-21T06:42:27.949Z,17.85
2022-08-21T06:44:54.878Z,17.82
2022-08-21T06:47:21.559Z,17.78
2022-08-21T06:49:48.303Z,17.83
2022-08-21T06:52:16.454Z,18.08
2022-08-21T06:54:43.213Z,18.17
2022-08-21T06:57:09.852Z,18.00
2022-08-21T06:59:36.609Z,18.12
2022-08-21T07:02:03.528Z,18.17
2022-08-21T07:04:30.185Z,18.41
2022-08-21T07:06:56.856Z,18.38
2022-08-21T07:09:25.137Z,18.45
2022-08-21T07:11:55.033Z,18.33
2022-08-21T07:14:21.980Z,18.38
2022-08-21T07:16:49.610Z,18.57
2022-08-21T07:19:16.258Z,18.87
2022-08-21T07:21:42.893Z,19.09
2022-08-21T07:24:09.728Z,19.04
2022-08-21T07:26:37.156Z,18.83
2022-08-21T07:29:04.171Z,18.96
2022-08-21T07:31:31.068Z,18.80
2022-08-21T07:33:57.865Z,18.63
2022-08-21T07:36:24.722Z,18.94
2022-08-21T07:38:52.581Z,18.94
2022-08-21T07:41:23.178Z,18.88
2022-08-21T07:43:52.698Z,18.84
2022-08-21T07:46:20.204Z,18.87
2022-08-21T07:48:46.831Z,19.12
2022-08-21T07:51:16.241Z,19.22
2022-08-21T07:53:43.221Z,19.24
2022-08-21T07:56:10.304Z,19.27
2022-08-21T07:58:36.916Z,19.79
2022-08-21T08:01:03.642Z,19.70
2022-08-21T08:03:30.309Z,19.77
2022-08-21T08:05:57.747Z,20.07
2022-08-21T08:08:25.107Z,20.20
2022-08-21T08:10:53.511Z,19.92
2022-08-21T08:13:20.239Z,19.83
2022-08-21T08:15:46.871Z,19.73
2022-08-21T08:18:13.564Z,19.71
2022-08-21T08:20:40.316Z,19.62
2022-08-21T08:23:06.943Z,19.83
2022-08-21T08:25:36.847Z,19.85
2022-08-21T08:28:16.265Z,20.21
2022-08-21T08:30:46.885Z,20.07
2022-08-21T08:33:15.078Z,20.29
2022-08-21T08:35:44.285Z,20.31
2022-08-21T08:38:10.920Z,20.06
2022-08-21T08:40:38.754Z,20.18
2022-08-21T08:43:09.856Z,20.10
2022-08-21T08:45:46.883Z,19.86
2022-08-21T08:48:19.151Z,19.95
2022-08-21T08:50:58.452Z,20.09
2022-08-21T08:53:36.531Z,20.54
2022-08-21T08:56:05.839Z,20.80
2022-08-21T08:58:35.504Z,20.62
2022-08-21T09:01:02.712Z,20.78
2022-08-21T09:03:29.568Z,20.77
2022-08-21T09:06:28.352Z,20.88
2022-08-21T09:09:07.115Z,21.12
2022-08-21T09:11:42.621Z,20.94
2022-08-21T09:14:16.145Z,20.97
2022-08-21T09:16:58.657Z,21.01
2022-08-21T09:20:03.975Z,21.03
2022-08-21T09:22:50.002Z,21.15
2022-08-21T09:25:24.254Z,21.44
2022-08-21T09:27:51.494Z,21.20
2022-08-21T09:30:19.283Z,21.46
2022-08-21T09:32:45.989Z,21.78
2022-08-21T09:35:24.499Z,21.65
2022-08-21T09:38:04.111Z,22.38
2022-08-21T09:40:36.980Z,22.04
2022-08-21T09:43:04.955Z,22.30
2022-08-21T09:45:34.080Z,21.73
2022-08-21T09:48:26.849Z,21.85
2022-08-21T09:50:54.884Z,21.88
2022-08-21T09:53:22.441Z,21.63
2022-08-21T09:55:56.316Z,21.52
2022-08-21T09:58:32.536Z,22.02
2022-08-21T10:01:02.467Z,22.19
2022-08-21T10:03:30.380Z,22.05
2022-08-21T10:06:09.363Z,22.01
2022-08-21T10:08:39.406Z,22.08
2022-08-21T10:11:16.639Z,22.09
2022-08-21T10:13:49.272Z,21.76
2022-08-21T10:16:44.322Z,22.31
2022-08-21T10:19:31.109Z,22.13
2022-08-21T10:22:14.192Z,22.05
2022-08-21T10:24:55.066Z,21.85
2022-08-21T10:27:43.338Z,21.91
2022-08-21T10:30:18.883Z,21.70
2022-08-21T10:33:24.886Z,21.69
2022-08-21T10:36:15.238Z,22.08
2022-08-21T10:39:17.477Z,22.45
2022-08-21T10:42:42.463Z,22.43
2022-08-21T10:45:16.974Z,22.41
2022-08-21T10:47:51.528Z,22.22
2022-08-21T10:50:33.135Z,22.04
2022-08-21T10:53:33.976Z,21.87
2022-08-21T10:56:20.652Z,22.28
2022-08-21T10:59:17.351Z,22.25
2022-08-21T11:02:04.955Z,22.18
2022-08-21T11:04:43.380Z,21.96
2022-08-21T11:07:27.575Z,22.08
2022-08-21T11:10:27.080Z,22.35
2022-08-21T11:13:08.303Z,22.09
2022-08-21T11:15:56.476Z,22.03
2022-08-21T11:18:35.634Z,22.24
2022-08-21T11:21:29.132Z,22.30
2022-08-21T11:24:02.377Z,22.34
2022-08-21T11:26:38.891Z,22.16
2022-08-21T11:29:14.879Z,22.02
2022-08-21T11:31:56.772Z,22.25
2022-08-21T11:34:57.072Z,22.61
2022-08-21T11:37:24.443Z,22.25
2022-08-21T11:39:53.945Z,22.31
2022-08-21T11:42:46.770Z,22.08
2022-08-21T11:45:33.825Z,21.93
2022-08-21T11:48:14.876Z,22.06
2022-08-21T11:50:45.256Z,22.49
2022-08-21T11:53:31.727Z,22.34
2022-08-21T11:56:06.654Z,22.18
2022-08-21T11:58:47.256Z,22.17
2022-08-21T12:01:20.490Z,22.14
2022-08-21T12:04:09.948Z,21.78
2022-08-21T12:06:42.116Z,21.73
2022-08-21T12:09:32.841Z,21.85
2022-08-21T12:12:06.238Z,22.22
2022-08-21T12:14:45.852Z,21.96
2022-08-21T12:17:22.153Z,22.13
2022-08-21T12:20:20.894Z,22.72
2022-08-21T12:23:15.945Z,22.65
2022-08-21T12:25:59.880Z,22.47
2022-08-21T12:28:28.715Z,22.93
2022-08-21T12:30:58.102Z,22.92
2022-08-21T12:33:30.600Z,23.13
2022-08-21T12:36:13.026Z,22.93
2022-08-21T12:39:04.752Z,22.42
2022-08-21T12:42:01.992Z,22.22
2022-08-21T12:44:50.840Z,22.80
2022-08-21T12:47:43.450Z,22.71
2022-08-21T12:50:14.740Z,23.03
2022-08-21T12:53:18.621Z,23.24
2022-08-21T12:55:47.383Z,23.33
2022-08-21T12:58:22.588Z,22.96
2022-08-21T13:01:04.460Z,22.39
2022-08-21T13:03:33.064Z,22.48
2022-08-21T13:06:00.254Z,22.75
2022-08-21T13:08:28.670Z,23.02
2022-08-21T13:11:13.597Z,23.23
2022-08-21T13:13:46.980Z,23.49
2022-08-21T13:16:27.827Z,22.91
2022-08-21T13:19:05.663Z,22.52
2022-08-21T13:21:36.103Z,22.30
2022-08-21T13:24:38.761Z,21.96
2022-08-21T13:27:02.500Z,21.53
2022-08-21T13:29:32.921Z,21.39
2022-08-21T13:32:02.834Z,21.55
2022-08-21T13:34:37.546Z,22.12
2022-08-21T13:37:09.896Z,21.65
2022-08-21T13:39:36.789Z,21.50
2022-08-21T13:42:11.784Z,21.10
2022-08-21T13:44:44.658Z,21.10
2022-08-21T13:47:14.252Z,21.41
2022-08-21T13:49:45.115Z,20.92
2022-08-21T13:52:25.891Z,20.80
2022-08-21T13:54:56.412Z,20.37
2022-08-21T13:57:41.305Z,20.59
2022-08-21T14:00:16.151Z,20.31
2022-08-21T14:02:46.463Z,20.50
2022-08-21T14:05:34.267Z,20.87
2022-08-21T14:08:09.603Z,20.74
2022-08-21T14:10:43.471Z,20.48
2022-08-21T14:13:55.993Z,20.11
2022-08-21T14:16:28.831Z,21.01
2022-08-21T14:19:03.714Z,20.48
2022-08-21T14:21:39.303Z,20.72
2022-08-21T14:24:06.117Z,20.79
2022-08-21T14:26:35.294Z,20.12
2022-08-21T14:29:02.368Z,19.74
2022-08-21T14:31:37.024Z,20.02
2022-08-21T14:34:19.265Z,20.25
2022-08-21T14:36:47.993Z,19.56
2022-08-21T14:39:14.733Z,19.67
2022-08-21T14:41:42.431Z,19.72
2022-08-21T14:44:10.171Z,19.66
2022-08-21T14:46:43.973Z,20.07
2022-08-21T14:49:24.862Z,19.83
2022-08-21T14:51:54.176Z,19.89
2022-08-21T14:54:23.206Z,20.34
2022-08-21T14:57:02.019Z,19.04
2022-08-21T14:59:28.753Z,19.15
2022-08-21T15:01:55.378Z,18.71
2022-08-21T15:04:21.971Z,19.28
2022-08-21T15:06:48.598Z,19.03
2022-08-21T15:09:15.285Z,19.21
2022-08-21T15:11:43.270Z,19.51
2022-08-21T15:14:21.426Z,19.54
2022-08-21T15:16:49.176Z,19.63
2022-08-21T15:19:15.849Z,19.69
2022-08-21T15:21:42.479Z,19.98
2022-08-21T15:24:09.253Z,19.33
2022-08-21T15:26:37.582Z,19.54
2022-08-21T15:29:07.031Z,19.56
2022-08-21T15:31:34.228Z,19.80
2022-08-21T15:34:00.860Z,19.37
2022-08-21T15:36:27.750Z,19.95
2022-08-21T15:38:54.378Z,19.89
2022-08-21T15:41:21.103Z,19.92
2022-08-21T15:43:51.570Z,20.01
2022-08-21T15:46:20.179Z,20.37
2022-08-21T15:48:47.252Z,20.40
2022-08-21T15:51:15.963Z,20.37
2022-08-21T15:53:42.645Z,19.67
2022-08-21T15:56:18.089Z,19.43
2022-08-21T15:58:44.800Z,19.36
2022-08-21T16:01:11.545Z,19.22
2022-08-21T16:03:39.421Z,19.16
2022-08-21T16:06:06.235Z,19.34
2022-08-21T16:08:32.913Z,19.26
2022-08-21T16:11:01.337Z,19.12
2022-08-21T16:13:36.594Z,19.16
2022-08-21T16:16:03.789Z,19.17
2022-08-21T16:18:30.484Z,19.19
2022-08-21T16:20:57.194Z,19.06
2022-08-21T16:23:23.929Z,19.37
2022-08-21T16:25:51.181Z,19.13
2022-08-21T16:28:20.370Z,19.19
2022-08-21T16:30:49.876Z,19.56
2022-08-21T16:33:34.924Z,19.18
2022-08-21T16:36:04.325Z,19.30
2022-08-21T16:38:32.176Z,19.32
2022-08-21T16:41:00.148Z,19.20
2022-08-21T16:43:29.572Z,19.15
2022-08-21T16:45:58.168Z,19.17
2022-08-21T16:48:25.191Z,19.17
2022-08-21T16:50:51.977Z,19.30
2022-08-21T16:53:18.600Z,19.27
2022-08-21T16:55:48.060Z,19.18
2022-08-21T16:58:35.658Z,19.18
2022-08-21T17:01:07.607Z,18.80
2022-08-21T17:03:41.048Z,18.86
2022-08-21T17:06:08.767Z,18.76
2022-08-21T17:08:35.599Z,18.71
2022-08-21T17:11:04.040Z,18.73
2022-08-21T17:13:30.957Z,18.68
2022-08-21T17:15:57.851Z,18.73
2022-08-21T17:18:26.540Z,18.95
2022-08-21T17:20:53.304Z,18.87
2022-08-21T17:23:20.542Z,19.01
2022-08-21T17:25:51.859Z,18.86
2022-08-21T17:28:25.720Z,18.64
2022-08-21T17:30:54.849Z,18.48
2022-08-21T17:33:23.322Z,18.63
2022-08-21T17:35:49.982Z,18.40
2022-08-21T17:38:16.651Z,18.77
2022-08-21T17:40:44.271Z,18.68
2022-08-21T17:43:13.177Z,18.28
2022-08-21T17:45:41.301Z,18.39
2022-08-21T17:48:08.174Z,18.30
2022-08-21T17:50:35.109Z,18.40
2022-08-21T17:53:01.856Z,18.32
2022-08-21T17:55:29.605Z,18.38
2022-08-21T17:57:57.425Z,18.41
2022-08-21T18:00:26.608Z,18.62
2022-08-21T18:03:05.240Z,18.61
2022-08-21T18:05:32.006Z,18.80
2022-08-21T18:07:58.959Z,18.74
2022-08-21T18:10:26.278Z,18.62
2022-08-21T18:12:53.364Z,18.68
2022-08-21T18:15:20.503Z,18.66
2022-08-21T18:17:50.134Z,18.54
2022-08-21T18:20:19.210Z,18.57
2022-08-21T18:22:46.059Z,18.72
2022-08-21T18:25:13.607Z,18.81
2022-08-21T18:27:42.150Z,18.80
2022-08-21T18:30:09.401Z,18.54
2022-08-21T18:32:36.563Z,18.42
2022-08-21T18:35:05.979Z,18.38
2022-08-21T18:37:33.143Z,18.59
2022-08-21T18:40:00.254Z,18.60
2022-08-21T18:42:29.482Z,18.83
2022-08-21T18:45:01.665Z,18.51
2022-08-21T18:47:32.595Z,18.60
2022-08-21T18:49:59.800Z,18.71
2022-08-21T18:52:28.570Z,18.58
2022-08-21T18:54:55.545Z,18.58
2022-08-21T18:57:25.415Z,18.37
2022-08-21T18:59:52.045Z,18.25
2022-08-21T19:02:18.995Z,18.40
2022-08-21T19:04:45.644Z,18.39
2022-08-21T19:07:14.335Z,18.55
2022-08-21T19:09:52.660Z,18.34
2022-08-21T19:12:29.511Z,18.42
2022-08-21T19:14:56.634Z,18.35
2022-08-21T19:17:25.673Z,18.17
2022-08-21T19:19:52.721Z,18.41
2022-08-21T19:22:19.339Z,18.27
2022-08-21T19:24:49.814Z,18.41
2022-08-21T19:27:17.978Z,18.46
2022-08-21T19:29:44.999Z,18.38
2022-08-21T19:32:12.659Z,18.63
2022-08-21T19:34:40.684Z,18.63
2022-08-21T19:37:11.006Z,18.49
2022-08-21T19:39:37.894Z,18.80
2022-08-21T19:42:05.651Z,18.18
2022-08-21T19:44:32.859Z,18.85
2022-08-21T19:46:59.794Z,18.49
2022-08-21T19:49:34.424Z,18.47
2022-08-21T19:52:02.289Z,18.43
2022-08-21T19:54:39.556Z,18.08
2022-08-21T19:57:08.808Z,18.14
2022-08-21T19:59:37.051Z,18.05
2022-08-21T20:02:03.733Z,18.28
2022-08-21T20:04:30.362Z,18.30
2022-08-21T20:06:57.154Z,18.18
2022-08-21T20:09:23.990Z,18.19
2022-08-21T20:11:54.318Z,18.22
2022-08-21T20:14:25.895Z,18.12
2022-08-21T20:17:04.856Z,18.16
2022-08-21T20:19:32.009Z,18.22
2022-08-21T20:21:58.886Z,18.44
2022-08-21T20:24:27.345Z,18.57
2022-08-21T20:26:54.502Z,18.27
2022-08-21T20:29:23.924Z,18.24
2022-08-21T20:31:52.700Z,18.37
2022-08-21T20:34:19.485Z,18.33
2022-08-21T20:36:47.466Z,18.59
2022-08-21T20:39:14.977Z,18.78
2022-08-21T20:41:43.894Z,18.86
2022-08-21T20:44:15.876Z,18.76
2022-08-21T20:46:43.412Z,18.63
2022-08-21T20:49:20.045Z,18.84
2022-08-21T20:51:50.788Z,18.97
2022-08-21T20:54:33.588Z,19.03
2022-08-21T20:57:13.630Z,19.08
2022-08-21T20:59:52.741Z,19.13
2022-08-21T21:02:26.542Z,19.19
2022-08-21T21:05:20.652Z,19.26
2022-08-21T21:08:11.877Z,19.15
2022-08-21T21:10:49.588Z,19.11
2022-08-21T21:13:53.534Z,18.94
2022-08-21T21:16:36.232Z,19.02
2022-08-21T21:19:37.339Z,19.19
2022-08-21T21:22:10.224Z,19.00
2022-08-21T21:25:04.300Z,19.10
2022-08-21T21:27:43.192Z,18.94
2022-08-21T21:30:23.040Z,18.93
2022-08-21T21:32:50.745Z,18.75
2022-08-21T21:35:32.240Z,18.59
2022-08-21T21:38:13.599Z,18.56
2022-08-21T21:41:05.748Z,18.51
2022-08-21T21:44:03.457Z,18.41
2022-08-21T21:46:56.992Z,18.34
2022-08-21T21:49:51.788Z,17.86
2022-08-21T21:52:27.624Z,18.12
2022-08-21T21:55:40.146Z,17.98
2022-08-21T21:58:18.714Z,17.91
2022-08-21T22:01:03.506Z,18.00
2022-08-21T22:04:00.291Z,18.07
2022-08-21T22:06:33.233Z,17.85
2022-08-21T22:08:59.882Z,17.74
2022-08-21T22:11:55.522Z,17.77
2022-08-21T22:14:32.177Z,17.61
2022-08-21T22:17:07.733Z,17.88
2022-08-21T22:19:40.844Z,17.67
2022-08-21T22:22:15.112Z,17.72
2022-08-21T22:24:46.768Z,17.65
2022-08-21T22:27:22.206Z,17.63
2022-08-21T22:29:52.873Z,17.58
2022-08-21T22:32:33.478Z,17.76
2022-08-21T22:35:10.190Z,17.72
2022-08-21T22:37:43.538Z,17.40
2022-08-21T22:40:13.588Z,17.51
2022-08-21T22:42:42.636Z,17.30
2022-08-21T22:45:12.347Z,17.44
2022-08-21T22:47:44.906Z,17.35
2022-08-21T22:50:41.732Z,17.54
2022-08-21T22:53:10.082Z,17.32
2022-08-21T22:55:45.272Z,17.19
2022-08-21T22:58:13.101Z,17.30
2022-08-21T23:00:45.571Z,17.43
2022-08-21T23:03:25.582Z,17.31
2022-08-21T23:05:53.414Z,17.04
2022-08-21T23:08:38.223Z,17.39
2022-08-21T23:11:13.440Z,16.95
2022-08-21T23:13:44.919Z,17.09
2022-08-21T23:16:23.413Z,17.11
2022-08-21T23:19:19.141Z,17.14
2022-08-21T23:21:54.909Z,17.81
2022-08-21T23:24:33.680Z,17.49
2022-08-21T23:27:32.001Z,17.87
2022-08-21T23:30:25.066Z,18.09
2022-08-21T23:32:54.066Z,17.87
2022-08-21T23:35:24.982Z,18.05
2022-08-21T23:38:29.566Z,18.11
2022-08-21T23:41:11.252Z,18.14
2022-08-21T23:44:13.209Z,17.81
2022-08-21T23:47:01.492Z,17.61
2022-08-21T23:49:44.056Z,17.65
2022-08-21T23:52:26.213Z,17.79
2022-08-21T23:55:11.757Z,17.94
2022-08-21T23:57:47.469Z,17.82
